Time;durP1;ratioP1;P1;durP2;ratioP2;P2;SDS_P1;SDS_P2;PMS_P1;PMS_P2;Temp;Humidity;BMP_temperature;BMP_pressure;BME280_temperature;BME280_humidity;BME280_pressure;Samples;Min_cycle;Max_cycle;Signal;HPM_P1;HPM_P2
2024/01/03 00:00:26;;;;;;;13.73;3.50;;;11.80;98.60;;;;;;5090999;28;20211;-83
2024/01/03 00:02:52;;;;;;;14.37;3.00;;;11.80;99.50;;;;;;5091530;28;20164;-83
2024/01/03 00:05:23;;;;;;;11.57;3.20;;;11.70;99.90;;;;;;5091151;28;20720;-81
2024/01/03 00:07:49;;;;;;;16.07;3.50;;;11.70;99.70;;;;;;5089665;28;20181;-83
2024/01/03 00:10:50;;;;;;;13.37;3.60;;;11.70;99.90;;;;;;5091818;28;20200;-82
2024/01/03 00:13:34;;;;;;;11.93;2.70;;;11.70;99.90;;;;;;5090846;28;20180;-83
2024/01/03 00:15:59;;;;;;;10.00;2.40;;;11.70;99.90;;;;;;5090216;28;20245;-83
2024/01/03 00:19:04;;;;;;;13.67;3.37;;;11.70;99.70;;;;;;5091183;28;20640;-82
2024/01/03 00:21:32;;;;;;;15.10;3.17;;;11.60;99.90;;;;;;5090984;28;20180;-84
2024/01/03 00:24:05;;;;;;;7.03;2.40;;;11.60;99.90;;;;;;5091507;28;20184;-82
2024/01/03 00:26:33;;;;;;;11.00;3.00;;;11.60;99.90;;;;;;5089178;28;20184;-81
2024/01/03 00:28:59;;;;;;;11.13;2.77;;;11.60;99.90;;;;;;5091221;28;20707;-82
2024/01/03 00:31:27;;;;;;;15.60;2.97;;;11.60;99.90;;;;;;5094310;28;20179;-83
2024/01/03 00:33:54;;;;;;;13.33;3.07;;;11.50;99.90;;;;;;5094528;28;20239;-82
2024/01/03 00:36:19;;;;;;;10.57;2.60;;;11.50;99.90;;;;;;5094355;28;20176;-84
2024/01/03 00:38:45;;;;;;;12.97;3.00;;;11.50;99.90;;;;;;5095613;28;20211;-81
2024/01/03 00:41:12;;;;;;;13.83;2.97;;;11.50;99.90;;;;;;5088466;28;20176;-81
2024/01/03 00:43:41;;;;;;;12.93;2.80;;;11.50;99.90;;;;;;5083166;28;20175;-81
2024/01/03 00:46:10;;;;;;;12.67;2.87;;;11.50;99.90;;;;;;5084616;28;20173;-84
2024/01/03 00:48:36;;;;;;;12.23;2.53;;;11.50;99.90;;;;;;5083476;28;20243;-84
2024/01/03 00:51:03;;;;;;;11.67;3.30;;;11.50;99.90;;;;;;5085197;28;20170;-80
2024/01/03 00:53:30;;;;;;;9.97;2.87;;;11.50;99.90;;;;;;5083641;28;20174;-82
2024/01/03 00:55:56;;;;;;;9.73;3.20;;;11.50;97.80;;;;;;5084261;28;20202;-83
2024/01/03 00:58:23;;;;;;;6.90;2.17;;;11.60;97.10;;;;;;5085802;28;20191;-81
2024/01/03 01:00:49;;;;;;;7.43;1.73;;;11.60;94.50;;;;;;5082764;28;20172;-81
2024/01/03 01:03:16;;;;;;;7.27;2.13;;;11.60;92.40;;;;;;5082837;28;20161;-81
2024/01/03 01:05:43;;;;;;;8.43;2.20;;;11.60;90.30;;;;;;5083921;28;20172;-83
2024/01/03 01:08:09;;;;;;;9.27;2.30;;;11.60;90.00;;;;;;5082682;28;20172;-83
2024/01/03 01:10:34;;;;;;;10.87;2.57;;;11.60;86.70;;;;;;5083089;28;20199;-82
2024/01/03 01:13:00;;;;;;;7.20;1.80;;;11.50;89.50;;;;;;5084730;28;20241;-82
2024/01/03 01:15:26;;;;;;;7.43;2.03;;;11.50;88.80;;;;;;5084110;28;20196;-83
2024/01/03 01:17:51;;;;;;;7.50;1.73;;;11.50;86.20;;;;;;5083066;28;20164;-83
2024/01/03 01:20:17;;;;;;;7.73;1.87;;;11.50;87.10;;;;;;5072381;28;20683;-83
2024/01/03 01:22:43;;;;;;;6.90;2.03;;;11.50;89.50;;;;;;5088809;28;20203;-82
2024/01/03 01:25:08;;;;;;;9.00;2.07;;;11.50;90.00;;;;;;5100566;28;20207;-83
2024/01/03 01:27:34;;;;;;;6.77;1.93;;;11.50;91.00;;;;;;5108508;28;20174;-81
2024/01/03 01:30:00;;;;;;;7.97;2.20;;;11.50;91.70;;;;;;5100823;28;20594;-83
2024/01/03 01:32:25;;;;;;;7.67;2.40;;;11.50;92.50;;;;;;5093264;28;20172;-83
2024/01/03 01:34:51;;;;;;;7.50;2.47;;;11.40;94.00;;;;;;5092184;28;20170;-84
2024/01/03 01:37:17;;;;;;;7.10;2.27;;;11.30;95.50;;;;;;5092512;28;20581;-82
2024/01/03 01:39:44;;;;;;;7.33;2.17;;;11.30;97.60;;;;;;5091743;28;20223;-83
2024/01/03 01:42:10;;;;;;;9.33;2.40;;;11.30;98.40;;;;;;5091671;28;20165;-84
2024/01/03 01:44:36;;;;;;;7.57;1.90;;;11.30;98.50;;;;;;5092949;28;20635;-82
2024/01/03 01:47:05;;;;;;;11.20;2.87;;;11.30;99.50;;;;;;5093962;28;20248;-83
2024/01/03 01:49:32;;;;;;;10.87;2.50;;;11.20;99.90;;;;;;5093271;28;20215;-83
2024/01/03 01:51:59;;;;;;;10.23;2.73;;;11.20;99.90;;;;;;5093599;28;20168;-82
2024/01/03 01:54:25;;;;;;;13.27;2.80;;;11.20;99.90;;;;;;5092383;28;20255;-83
2024/01/03 01:56:52;;;;;;;8.80;2.93;;;11.20;99.90;;;;;;5093308;28;20560;-83
2024/01/03 01:59:20;;;;;;;9.83;3.20;;;11.20;99.90;;;;;;5094533;28;20198;-83
2024/01/03 02:01:46;;;;;;;10.03;2.73;;;11.20;99.90;;;;;;5094079;28;20698;-81
2024/01/03 02:04:13;;;;;;;13.13;2.90;;;11.20;99.90;;;;;;5093200;28;20564;-83
2024/01/03 02:06:38;;;;;;;11.47;2.70;;;11.20;99.90;;;;;;5092860;28;20633;-82
2024/01/03 02:09:04;;;;;;;11.37;2.70;;;11.20;99.90;;;;;;5093194;28;20180;-83
2024/01/03 02:11:30;;;;;;;11.40;2.80;;;11.20;99.90;;;;;;5092507;28;20531;-82
2024/01/03 02:13:55;;;;;;;11.33;2.80;;;11.20;99.90;;;;;;5094145;28;20625;-82
2024/01/03 02:16:22;;;;;;;11.73;2.90;;;11.20;99.90;;;;;;5093051;28;20176;-83
2024/01/03 02:18:48;;;;;;;12.50;2.50;;;11.20;99.90;;;;;;5092619;28;20206;-84
2024/01/03 02:21:15;;;;;;;8.70;2.53;;;11.20;99.90;;;;;;5092764;28;20182;-83
2024/01/03 02:23:44;;;;;;;11.83;2.70;;;11.20;99.90;;;;;;5092622;28;20166;-82
2024/01/03 02:26:10;;;;;;;11.57;3.37;;;11.20;99.90;;;;;;5092730;28;20256;-84
2024/01/03 02:28:36;;;;;;;10.37;3.23;;;11.10;99.90;;;;;;5093157;28;20670;-83
2024/01/03 02:31:02;;;;;;;8.33;2.43;;;11.20;99.90;;;;;;5092651;28;20177;-84
2024/01/03 02:33:28;;;;;;;9.87;2.33;;;11.20;99.90;;;;;;5092443;28;20246;-82
2024/01/03 02:35:54;;;;;;;9.10;2.10;;;11.20;99.90;;;;;;5092425;28;20172;-82
2024/01/03 02:38:21;;;;;;;8.27;2.70;;;11.20;99.90;;;;;;5092670;28;20572;-83
2024/01/03 02:40:47;;;;;;;10.23;2.37;;;11.20;99.90;;;;;;5091741;28;20244;-83
2024/01/03 02:43:13;;;;;;;9.57;2.00;;;11.10;99.90;;;;;;5092422;28;20177;-83
2024/01/03 02:45:39;;;;;;;11.03;2.87;;;11.10;99.90;;;;;;5093401;28;20165;-83
2024/01/03 02:48:05;;;;;;;11.60;2.30;;;11.20;99.90;;;;;;5092539;28;20621;-83
2024/01/03 02:50:31;;;;;;;11.13;2.20;;;11.20;99.90;;;;;;5091897;28;20168;-83
2024/01/03 02:52:56;;;;;;;7.23;2.10;;;11.10;99.90;;;;;;5092882;28;20170;-84
2024/01/03 02:55:22;;;;;;;11.53;2.57;;;11.10;99.90;;;;;;5092007;28;20179;-82
2024/01/03 02:57:48;;;;;;;10.60;2.37;;;11.10;99.90;;;;;;5092458;28;20214;-84
2024/01/03 03:00:14;;;;;;;12.13;2.50;;;11.10;99.90;;;;;;5092032;28;20208;-84
2024/01/03 03:02:40;;;;;;;11.57;2.20;;;11.00;99.90;;;;;;5092714;28;20172;-84
2024/01/03 03:05:06;;;;;;;10.20;2.50;;;11.10;99.90;;;;;;5091895;28;20251;-83
2024/01/03 03:07:32;;;;;;;9.30;2.90;;;11.10;99.90;;;;;;5093410;28;20245;-84
2024/01/03 03:09:58;;;;;;;10.30;2.63;;;11.00;99.90;;;;;;5091634;28;20548;-83
2024/01/03 03:12:23;;;;;;;10.37;2.37;;;11.10;99.90;;;;;;5092210;28;20174;-83
2024/01/03 03:14:49;;;;;;;9.80;2.53;;;11.00;99.90;;;;;;5106043;28;20171;-82
2024/01/03 03:17:15;;;;;;;8.67;2.40;;;11.00;99.90;;;;;;5111470;28;20208;-84
2024/01/03 03:19:41;;;;;;;10.70;2.90;;;10.90;99.90;;;;;;5098124;28;20687;-84
2024/01/03 03:22:06;;;;;;;10.73;2.80;;;10.80;99.90;;;;;;5091804;28;20251;-83
2024/01/03 03:24:32;;;;;;;10.63;2.33;;;10.80;99.90;;;;;;5092056;28;20555;-83
2024/01/03 03:26:58;;;;;;;11.37;3.13;;;10.80;99.90;;;;;;5091698;28;20651;-85
2024/01/03 03:29:24;;;;;;;10.93;3.13;;;10.80;99.90;;;;;;5092142;28;20168;-85
2024/01/03 03:31:49;;;;;;;12.50;3.37;;;10.80;99.90;;;;;;5091777;28;20167;-84
2024/01/03 03:34:17;;;;;;;13.13;3.40;;;10.70;99.90;;;;;;5092269;28;20171;-83
2024/01/03 03:36:43;;;;;;;12.30;3.27;;;10.70;99.90;;;;;;5091574;28;20167;-83
2024/01/03 03:39:09;;;;;;;13.07;3.07;;;10.70;99.90;;;;;;5092182;28;20203;-82
2024/01/03 03:41:35;;;;;;;10.87;3.03;;;10.60;99.90;;;;;;5091864;28;20180;-85
2024/01/03 03:44:01;;;;;;;13.60;3.30;;;10.60;99.90;;;;;;5093427;28;20167;-84
2024/01/03 03:46:27;;;;;;;14.13;2.73;;;10.60;99.90;;;;;;5091617;28;20175;-84
2024/01/03 03:48:53;;;;;;;7.23;2.63;;;10.60;99.90;;;;;;5092074;28;20183;-84
2024/01/03 03:51:18;;;;;;;10.83;2.73;;;10.60;99.90;;;;;;5091540;28;20247;-83
2024/01/03 03:53:44;;;;;;;11.40;2.40;;;10.60;99.90;;;;;;5091777;28;20171;-84
2024/01/03 03:56:10;;;;;;;12.73;2.47;;;10.60;99.90;;;;;;5091630;28;20226;-84
2024/01/03 03:58:35;;;;;;;9.90;2.80;;;10.70;99.90;;;;;;5092659;28;20200;-84
2024/01/03 04:01:02;;;;;;;9.83;2.73;;;10.60;99.90;;;;;;5091701;28;20175;-84
2024/01/03 04:03:28;;;;;;;7.33;2.07;;;10.70;99.90;;;;;;5092035;28;20174;-83
2024/01/03 04:05:53;;;;;;;8.97;2.27;;;10.70;99.90;;;;;;5095159;28;20168;-83
2024/01/03 04:08:19;;;;;;;8.03;2.47;;;10.70;99.90;;;;;;5094395;28;20574;-84
2024/01/03 04:10:45;;;;;;;8.03;2.00;;;10.70;99.90;;;;;;5096651;28;20171;-83
2024/01/03 04:13:10;;;;;;;14.13;2.83;;;10.70;99.90;;;;;;5094511;28;20175;-83
2024/01/03 04:15:36;;;;;;;11.13;3.50;;;10.70;99.90;;;;;;5095122;28;20164;-83
2024/01/03 04:18:04;;;;;;;13.07;2.97;;;10.60;99.90;;;;;;5095281;28;20537;-83
2024/01/03 04:20:29;;;;;;;7.43;2.17;;;10.70;99.90;;;;;;5095198;28;20209;-84
2024/01/03 04:22:55;;;;;;;11.60;3.10;;;10.70;99.90;;;;;;5095431;28;20164;-84
2024/01/03 04:25:21;;;;;;;13.67;3.00;;;10.60;99.90;;;;;;5095032;28;20581;-84
2024/01/03 04:27:46;;;;;;;16.43;3.27;;;10.60;99.90;;;;;;5096206;28;20168;-83
2024/01/03 04:30:12;;;;;;;12.63;3.03;;;10.50;99.90;;;;;;5093872;28;20532;-84
2024/01/03 04:32:38;;;;;;;12.00;2.43;;;10.40;99.90;;;;;;5096114;28;20529;-84
2024/01/03 04:35:04;;;;;;;8.50;2.20;;;10.40;99.90;;;;;;5094121;28;20615;-84
2024/01/03 04:37:32;;;;;;;11.13;3.23;;;10.40;99.90;;;;;;5094465;28;20635;-84
2024/01/03 04:39:57;;;;;;;11.07;3.20;;;10.50;99.90;;;;;;5094983;28;20243;-84
2024/01/03 04:42:23;;;;;;;15.60;3.90;;;10.60;99.90;;;;;;5094121;28;20195;-84
2024/01/03 04:44:49;;;;;;;16.80;3.10;;;10.60;99.90;;;;;;5093664;28;20176;-84
2024/01/03 04:47:14;;;;;;;19.30;4.10;;;10.50;99.90;;;;;;5093772;28;20176;-83
2024/01/03 04:49:40;;;;;;;14.53;3.50;;;10.60;99.90;;;;;;5094227;28;20224;-84
2024/01/03 04:52:06;;;;;;;17.33;4.40;;;10.60;99.90;;;;;;5093979;28;20621;-84
2024/01/03 04:54:31;;;;;;;15.70;3.57;;;10.60;99.90;;;;;;5094423;28;20213;-84
2024/01/03 04:56:57;;;;;;;19.80;4.60;;;10.60;99.90;;;;;;5093954;28;20686;-83
2024/01/03 04:59:23;;;;;;;17.87;3.67;;;10.60;99.90;;;;;;5096131;28;20257;-83
2024/01/03 05:01:48;;;;;;;16.40;3.93;;;10.50;99.90;;;;;;5110181;28;20183;-82
2024/01/03 05:04:14;;;;;;;19.67;3.97;;;10.60;99.90;;;;;;5115944;28;20188;-82
2024/01/03 05:06:40;;;;;;;19.23;4.30;;;10.70;99.90;;;;;;5101283;28;20189;-82
2024/01/03 05:09:06;;;;;;;16.27;3.33;;;10.70;99.90;;;;;;5094653;28;20173;-83
2024/01/03 05:11:32;;;;;;;15.30;3.60;;;10.80;99.90;;;;;;5094464;28;20605;-83
2024/01/03 05:13:58;;;;;;;16.17;3.63;;;10.90;99.90;;;;;;5091469;28;20172;-83
2024/01/03 05:16:23;;;;;;;16.80;3.67;;;10.90;99.90;;;;;;5094592;28;20236;-83
2024/01/03 05:18:49;;;;;;;14.43;3.20;;;11.00;99.90;;;;;;5093964;28;20231;-82
2024/01/03 05:21:15;;;;;;;12.20;3.30;;;11.00;99.90;;;;;;5095607;28;20172;-83
2024/01/03 05:23:40;;;;;;;22.27;4.37;;;11.00;99.90;;;;;;5095111;28;20182;-83
2024/01/03 05:26:06;;;;;;;15.70;3.73;;;11.10;99.90;;;;;;5091764;28;20236;-84
2024/01/03 05:28:32;;;;;;;12.57;3.27;;;11.10;99.90;;;;;;5093926;28;20198;-83
2024/01/03 05:30:58;;;;;;;14.03;4.03;;;11.00;99.90;;;;;;5095210;28;20171;-83
2024/01/03 05:33:24;;;;;;;15.13;3.30;;;11.00;99.90;;;;;;5093828;28;20205;-82
2024/01/03 05:35:50;;;;;;;14.20;3.53;;;11.00;99.90;;;;;;5093508;28;20563;-82
2024/01/03 05:38:16;;;;;;;14.90;4.33;;;11.10;99.90;;;;;;5094938;28;20183;-83
2024/01/03 05:40:42;;;;;;;17.93;3.13;;;11.20;99.90;;;;;;5093689;28;20237;-82
2024/01/03 05:43:08;;;;;;;15.63;3.10;;;11.20;99.90;;;;;;5093767;28;20180;-81
2024/01/03 05:45:34;;;;;;;17.17;3.30;;;11.10;99.90;;;;;;5093414;28;20274;-82
2024/01/03 05:48:00;;;;;;;13.43;3.20;;;11.10;99.90;;;;;;5094728;28;20195;-81
2024/01/03 05:50:26;;;;;;;13.30;3.53;;;11.20;99.90;;;;;;5095312;28;20209;-81
2024/01/03 05:52:51;;;;;;;16.77;3.43;;;11.20;99.90;;;;;;5093787;28;20559;-83
2024/01/03 05:55:17;;;;;;;12.07;2.80;;;11.10;99.90;;;;;;5094614;28;20209;-83
2024/01/03 05:57:43;;;;;;;12.03;2.93;;;11.10;99.90;;;;;;5094523;28;20666;-83
2024/01/03 06:00:10;;;;;;;9.00;2.33;;;11.00;99.90;;;;;;5093389;28;20230;-83
2024/01/03 06:02:36;;;;;;;12.67;2.87;;;11.00;99.90;;;;;;5092807;28;20171;-83
2024/01/03 06:05:02;;;;;;;9.47;2.13;;;11.00;99.90;;;;;;5093209;28;20646;-84
2024/01/03 06:07:27;;;;;;;7.33;2.30;;;11.00;99.90;;;;;;5094519;28;20643;-83
2024/01/03 06:09:53;;;;;;;8.20;2.13;;;11.00;99.90;;;;;;5092657;28;20179;-83
2024/01/03 06:12:19;;;;;;;8.10;2.40;;;11.00;99.90;;;;;;5093742;28;20175;-83
2024/01/03 06:14:44;;;;;;;8.97;1.97;;;11.00;99.90;;;;;;5092769;28;20527;-84
2024/01/03 06:17:10;;;;;;;9.37;2.53;;;11.00;99.90;;;;;;5092441;28;20275;-84
2024/01/03 06:19:36;;;;;;;7.97;1.73;;;10.90;99.90;;;;;;5093068;28;20199;-83
2024/01/03 06:22:02;;;;;;;9.93;2.37;;;10.90;99.90;;;;;;5093184;28;20175;-83
2024/01/03 06:24:27;;;;;;;6.63;1.90;;;10.90;99.90;;;;;;5092712;28;20270;-84
2024/01/03 06:26:53;;;;;;;9.93;2.37;;;10.90;99.90;;;;;;5091469;28;20555;-84
2024/01/03 06:29:19;;;;;;;8.40;1.87;;;10.90;99.90;;;;;;5092681;28;20639;-84
2024/01/03 06:31:44;;;;;;;6.23;2.37;;;10.90;99.90;;;;;;5091963;28;20650;-84
2024/01/03 06:34:10;;;;;;;7.27;2.30;;;10.90;99.90;;;;;;5093818;28;20675;-84
2024/01/03 06:36:35;;;;;;;7.20;2.07;;;10.90;99.90;;;;;;5092075;28;20243;-84
2024/01/03 06:39:01;;;;;;;9.03;1.87;;;10.90;99.90;;;;;;5092207;28;20541;-83
2024/01/03 06:41:27;;;;;;;5.17;1.80;;;10.90;99.90;;;;;;5092106;28;20179;-84
2024/01/03 06:43:52;;;;;;;10.13;2.30;;;10.90;99.90;;;;;;5093631;28;20228;-84
2024/01/03 06:46:18;;;;;;;5.03;2.07;;;10.90;99.90;;;;;;5092961;28;20183;-83
2024/01/03 06:48:44;;;;;;;11.87;2.30;;;10.90;99.90;;;;;;5092835;28;20233;-84
2024/01/03 06:51:10;;;;;;;10.57;2.47;;;10.90;99.90;;;;;;5092438;28;20171;-84
2024/01/03 06:53:35;;;;;;;10.00;2.13;;;10.90;99.90;;;;;;5092427;28;20183;-84
2024/01/03 06:56:01;;;;;;;7.97;2.30;;;11.00;99.50;;;;;;5090562;28;20639;-84
2024/01/03 06:58:27;;;;;;;4.47;1.70;;;10.90;98.10;;;;;;5092357;28;20175;-84
2024/01/03 07:00:52;;;;;;;9.73;2.57;;;10.90;96.60;;;;;;5092070;28;20214;-83
2024/01/03 07:03:18;;;;;;;7.53;2.10;;;10.90;95.30;;;;;;5092450;28;20179;-83
2024/01/03 07:05:45;;;;;;;8.93;2.30;;;11.00;95.60;;;;;;5093474;28;20198;-84
2024/01/03 07:08:10;;;;;;;7.83;2.27;;;11.00;93.80;;;;;;5093493;28;20171;-83
2024/01/03 07:10:36;;;;;;;5.00;1.60;;;11.00;93.30;;;;;;5092158;28;20291;-84
2024/01/03 07:13:02;;;;;;;9.63;2.00;;;10.90;93.70;;;;;;5091618;28;20182;-83
2024/01/03 07:15:29;;;;;;;5.40;1.90;;;10.90;95.00;;;;;;5091777;28;20175;-83
2024/01/03 07:17:55;;;;;;;12.40;2.60;;;10.90;96.40;;;;;;5091655;28;20263;-83
2024/01/03 07:20:22;;;;;;;8.20;2.40;;;11.00;97.50;;;;;;5091581;28;20237;-86
2024/01/03 07:22:51;;;;;;;10.50;2.57;;;10.90;99.90;;;;;;5091859;28;20182;-83
2024/01/03 07:25:17;;;;;;;8.27;2.40;;;10.90;99.90;;;;;;5091706;28;20195;-83
2024/01/03 07:27:43;;;;;;;9.97;3.00;;;10.90;99.90;;;;;;5093173;28;20220;-84
2024/01/03 07:30:09;;;;;;;12.23;2.30;;;10.90;99.90;;;;;;5092113;28;20175;-85
2024/01/03 07:32:37;;;;;;;8.73;2.40;;;10.80;99.90;;;;;;5092414;28;20539;-84
2024/01/03 07:35:03;;;;;;;10.97;2.70;;;10.80;99.90;;;;;;5091756;28;20190;-85
2024/01/03 07:37:29;;;;;;;8.30;2.20;;;10.80;99.90;;;;;;5091599;28;20191;-84
2024/01/03 07:39:54;;;;;;;10.17;2.40;;;10.80;99.90;;;;;;5094472;28;20215;-84
2024/01/03 07:42:20;;;;;;;11.30;2.93;;;10.70;99.90;;;;;;5095966;28;20533;-83
2024/01/03 07:44:45;;;;;;;8.27;2.23;;;10.70;99.90;;;;;;5092771;28;20616;-85
2024/01/03 07:47:11;;;;;;;8.13;2.90;;;10.80;99.90;;;;;;5096095;28;20175;-84
2024/01/03 07:49:38;;;;;;;8.47;2.20;;;10.80;99.90;;;;;;5095147;28;20689;-84
2024/01/03 07:52:04;;;;;;;10.50;2.90;;;10.70;99.90;;;;;;5095433;28;20171;-83
2024/01/03 07:54:30;;;;;;;13.30;2.93;;;10.70;99.90;;;;;;5095435;28;20171;-84
2024/01/03 07:56:57;;;;;;;10.47;2.80;;;10.70;99.90;;;;;;5095226;28;20644;-83
2024/01/03 07:59:23;;;;;;;9.93;2.60;;;10.70;99.90;;;;;;5094991;28;20217;-83
2024/01/03 08:01:50;;;;;;;10.83;2.77;;;10.80;99.90;;;;;;5094610;28;20263;-83
2024/01/03 08:04:16;;;;;;;11.40;2.93;;;10.80;99.90;;;;;;5094880;28;20171;-82
2024/01/03 08:06:42;;;;;;;12.10;3.00;;;10.80;99.90;;;;;;5094837;28;20219;-84
2024/01/03 08:09:09;;;;;;;11.87;3.00;;;10.80;99.90;;;;;;5095926;28;20167;-86
2024/01/03 08:11:35;;;;;;;10.80;3.10;;;10.80;99.90;;;;;;5096441;28;20175;-86
2024/01/03 08:14:01;;;;;;;17.20;3.50;;;10.80;99.90;;;;;;5095113;28;20179;-86
2024/01/03 08:16:26;;;;;;;20.73;3.60;;;10.90;99.90;;;;;;5094921;28;20176;-85
2024/01/03 08:18:52;;;;;;;15.10;3.60;;;10.90;99.90;;;;;;5094921;28;20620;-83
2024/01/03 08:21:19;;;;;;;13.47;3.70;;;10.90;99.90;;;;;;5096148;28;20646;-86
2024/01/03 08:23:45;;;;;;;12.73;3.53;;;11.00;99.90;;;;;;5094300;28;20645;-84
2024/01/03 08:26:12;;;;;;;14.73;3.70;;;11.00;99.90;;;;;;5094540;28;20196;-83
2024/01/03 08:28:40;;;;;;;14.03;3.93;;;11.00;99.90;;;;;;5094484;28;20164;-83
2024/01/03 08:31:07;;;;;;;18.93;4.60;;;11.00;99.90;;;;;;5094584;28;20176;-83
2024/01/03 08:33:36;;;;;;;16.00;3.93;;;11.10;99.90;;;;;;5094280;28;20173;-83
2024/01/03 08:36:02;;;;;;;18.77;4.27;;;11.10;99.90;;;;;;5094675;28;20168;-82
2024/01/03 08:38:28;;;;;;;16.27;4.10;;;11.00;99.90;;;;;;5094320;28;20176;-83
2024/01/03 08:40:54;;;;;;;22.90;4.07;;;10.90;99.90;;;;;;5096154;28;20218;-83
2024/01/03 08:43:19;;;;;;;19.20;4.37;;;10.80;99.90;;;;;;5094255;28;20490;-84
2024/01/03 08:45:45;;;;;;;19.63;4.90;;;10.90;99.90;;;;;;5095471;28;20168;-83
2024/01/03 08:48:10;;;;;;;14.23;4.13;;;10.80;99.90;;;;;;5093981;28;20210;-83
2024/01/03 08:50:36;;;;;;;16.73;4.10;;;10.90;99.90;;;;;;5094470;28;20248;-83
2024/01/03 08:53:02;;;;;;;16.93;4.23;;;10.80;99.90;;;;;;5094079;28;20174;-84
2024/01/03 08:55:28;;;;;;;15.97;4.30;;;10.80;99.90;;;;;;5094211;28;20182;-83
2024/01/03 08:57:56;;;;;;;17.07;4.50;;;10.80;99.90;;;;;;5093782;28;20222;-84
2024/01/03 09:00:26;;;;;;;21.57;4.43;;;10.80;99.90;;;;;;5094225;28;20204;-84
2024/01/03 09:02:57;;;;;;;15.60;4.27;;;10.80;99.90;;;;;;5094272;28;20654;-84
2024/01/03 09:05:22;;;;;;;19.17;4.13;;;10.80;99.90;;;;;;5094354;28;20176;-84
2024/01/03 09:07:49;;;;;;;15.83;3.83;;;10.80;99.90;;;;;;5093769;28;20206;-82
2024/01/03 09:10:15;;;;;;;14.23;3.77;;;10.70;99.90;;;;;;5093644;28;20266;-84
2024/01/03 09:12:40;;;;;;;22.27;4.37;;;10.70;99.90;;;;;;5095113;28;20967;-85
2024/01/03 09:15:08;;;;;;;13.63;3.83;;;10.80;99.90;;;;;;5093826;28;20182;-84
2024/01/03 09:17:33;;;;;;;15.77;3.43;;;10.70;99.90;;;;;;5093662;28;20186;-85
2024/01/03 09:19:59;;;;;;;11.60;3.53;;;10.80;99.90;;;;;;5093986;28;20211;-84
2024/01/03 09:22:24;;;;;;;12.37;3.50;;;10.80;99.90;;;;;;5093439;28;20596;-84
2024/01/03 09:24:50;;;;;;;16.50;3.87;;;10.80;99.90;;;;;;5092991;28;20663;-84
2024/01/03 09:27:17;;;;;;;17.93;4.27;;;10.80;99.90;;;;;;5093647;28;20536;-84
2024/01/03 09:29:43;;;;;;;11.80;2.93;;;10.80;99.90;;;;;;5093441;28;20180;-84
2024/01/03 09:32:09;;;;;;;12.20;3.07;;;10.80;99.90;;;;;;5093689;28;20252;-84
2024/01/03 09:34:41;;;;;;;13.50;4.10;;;10.80;99.90;;;;;;5093242;28;20236;-83
2024/01/03 09:37:07;;;;;;;9.10;2.90;;;10.80;99.90;;;;;;5096312;28;20183;-84
2024/01/03 09:39:33;;;;;;;10.63;3.00;;;10.80;99.90;;;;;;5092009;28;20207;-85
2024/01/03 09:41:59;;;;;;;13.37;3.47;;;10.90;99.90;;;;;;5093281;28;20186;-83
2024/01/03 09:44:26;;;;;;;11.03;3.50;;;10.90;99.90;;;;;;5092024;28;20186;-84
2024/01/03 09:46:52;;;;;;;13.30;2.80;;;11.00;99.90;;;;;;5094790;28;20176;-85
2024/01/03 09:49:18;;;;;;;10.77;3.07;;;11.00;99.90;;;;;;5083689;28;20194;-85
2024/01/03 09:51:50;;;;;;;12.00;3.20;;;11.00;99.90;;;;;;5072394;28;20291;-84
2024/01/03 09:54:16;;;;;;;11.27;3.40;;;11.00;99.90;;;;;;5072764;28;20204;-84
2024/01/03 09:56:43;;;;;;;14.97;2.90;;;10.90;99.90;;;;;;5092521;28;20217;-85
2024/01/03 09:59:08;;;;;;;12.30;3.10;;;10.80;99.90;;;;;;5091808;28;20241;-84
2024/01/03 10:01:34;;;;;;;14.80;3.73;;;10.80;99.90;;;;;;5081527;28;20173;-86
2024/01/03 10:04:00;;;;;;;20.07;3.40;;;10.80;99.90;;;;;;5087603;28;20171;-86
2024/01/03 10:06:26;;;;;;;16.57;4.07;;;10.90;99.90;;;;;;5091663;28;20179;-86
2024/01/03 10:09:00;;;;;;;12.33;3.73;;;10.90;99.90;;;;;;5072804;28;20176;-86
2024/01/03 10:11:26;;;;;;;17.67;3.70;;;10.90;99.90;;;;;;5072801;28;20225;-86
2024/01/03 10:13:56;;;;;;;9.23;2.80;;;10.90;99.90;;;;;;5073937;28;20176;-85
2024/01/03 10:16:27;;;;;;;12.00;3.10;;;10.90;99.90;;;;;;5072737;28;20272;-85
2024/01/03 10:19:26;;;;;;;13.47;3.60;;;11.00;99.90;;;;;;5075997;28;20179;-85
2024/01/03 10:21:54;;;;;;;12.37;3.43;;;11.00;99.90;;;;;;5077885;28;20203;-86
2024/01/03 10:24:25;;;;;;;10.90;3.13;;;11.20;99.90;;;;;;5092744;28;20331;-86
2024/01/03 10:26:51;;;;;;;12.07;3.70;;;11.30;99.90;;;;;;5093031;28;20714;-85
2024/01/03 10:29:18;;;;;;;13.60;3.37;;;11.40;99.90;;;;;;5092510;28;20525;-85
2024/01/03 10:31:48;;;;;;;13.67;4.10;;;11.50;99.90;;;;;;5093038;28;20270;-86
2024/01/03 10:34:23;;;;;;;15.23;3.97;;;11.40;99.90;;;;;;5085041;28;20163;-86
2024/01/03 10:36:51;;;;;;;17.80;4.57;;;11.40;99.90;;;;;;5083801;28;20180;-86
2024/01/03 10:39:19;;;;;;;11.50;3.40;;;11.40;99.90;;;;;;5079352;28;20204;-83
2024/01/03 10:41:46;;;;;;;12.53;3.20;;;11.40;99.90;;;;;;5081219;28;20170;-85
2024/01/03 10:44:17;;;;;;;13.03;3.40;;;11.50;99.90;;;;;;5079575;28;20628;-83
2024/01/03 10:46:48;;;;;;;16.20;4.00;;;11.50;99.90;;;;;;5077575;28;20240;-82
2024/01/03 10:49:15;;;;;;;13.50;3.73;;;11.50;99.90;;;;;;5089335;28;20643;-82
2024/01/03 10:51:43;;;;;;;11.53;3.87;;;11.60;97.40;;;;;;5076238;28;20175;-85
2024/01/03 10:54:13;;;;;;;15.17;3.43;;;11.60;97.80;;;;;;5079076;28;20180;-84
2024/01/03 10:56:46;;;;;;;11.73;3.80;;;11.70;97.80;;;;;;5078921;28;20222;-85
2024/01/03 10:59:13;;;;;;;9.77;3.23;;;11.70;98.00;;;;;;5084884;28;20196;-85
2024/01/03 11:02:07;;;;;;;12.20;3.33;;;11.70;96.70;;;;;;5077686;28;20192;-86
2024/01/03 11:05:06;;;;;;;9.97;2.60;;;11.80;95.10;;;;;;5079057;28;20230;-86
2024/01/03 11:07:44;;;;;;;10.40;3.10;;;11.70;96.10;;;;;;5079444;28;20173;-87
2024/01/03 11:10:11;;;;;;;14.57;3.40;;;11.80;93.90;;;;;;5074728;28;20654;-84
2024/01/03 11:12:37;;;;;;;14.60;3.83;;;11.80;94.00;;;;;;5073869;28;20176;-85
2024/01/03 11:15:25;;;;;;;11.00;3.30;;;11.80;95.60;;;;;;5077054;28;20175;-85
2024/01/03 11:17:50;;;;;;;13.17;3.90;;;11.80;95.10;;;;;;5076140;28;20203;-85
2024/01/03 11:20:27;;;;;;;14.50;3.30;;;11.90;93.40;;;;;;5079530;28;20690;-85
2024/01/03 11:22:57;;;;;;;14.03;3.07;;;12.00;93.20;;;;;;5095314;28;20206;-84
2024/01/03 11:25:53;;;;;;;12.83;4.03;;;12.10;91.30;;;;;;5077842;28;20688;-82
2024/01/03 11:28:33;;;;;;;12.47;2.83;;;12.20;87.50;;;;;;5075627;28;20172;-84
2024/01/03 11:31:00;;;;;;;13.73;3.70;;;12.20;89.20;;;;;;5082030;28;20175;-86
2024/01/03 11:33:28;;;;;;;14.30;3.40;;;12.20;88.20;;;;;;5081167;28;20188;-85
2024/01/03 11:35:54;;;;;;;14.20;3.67;;;12.30;78.30;;;;;;5071917;28;20599;-85
2024/01/03 11:38:43;;;;;;;12.57;3.53;;;12.50;78.10;;;;;;5073929;28;20188;-85
2024/01/03 11:41:15;;;;;;;13.93;3.70;;;12.50;78.60;;;;;;5070243;28;20220;-85
2024/01/03 11:43:41;;;;;;;12.90;3.00;;;12.60;71.40;;;;;;5071014;28;20183;-85
2024/01/03 11:46:09;;;;;;;15.30;3.63;;;12.50;68.10;;;;;;5087377;28;20171;-84
2024/01/03 11:48:35;;;;;;;10.63;3.20;;;12.50;68.10;;;;;;5091498;28;20267;-86
2024/01/03 11:51:01;;;;;;;15.03;3.60;;;12.40;68.70;;;;;;5089533;28;20186;-85
2024/01/03 11:53:27;;;;;;;15.37;3.53;;;12.30;69.50;;;;;;5087521;28;20206;-86
2024/01/03 11:55:54;;;;;;;9.77;2.67;;;12.30;68.20;;;;;;5089142;28;20188;-86
2024/01/03 11:58:19;;;;;;;9.70;2.70;;;12.30;68.80;;;;;;5074965;28;20203;-86
2024/01/03 12:00:45;;;;;;;14.23;2.93;;;12.20;69.50;;;;;;5084045;28;20299;-84
2024/01/03 12:03:19;;;;;;;11.03;3.23;;;12.10;73.10;;;;;;5085758;28;20187;-86
2024/01/03 12:05:44;;;;;;;8.77;3.03;;;12.10;77.90;;;;;;5090538;28;20187;-84
2024/01/03 12:08:10;;;;;;;10.50;2.43;;;12.00;85.70;;;;;;5090115;28;20180;-85
2024/01/03 12:10:37;;;;;;;7.37;2.63;;;11.90;94.20;;;;;;5090603;28;20328;-84
2024/01/03 12:13:02;;;;;;;11.17;3.07;;;11.80;97.50;;;;;;5090896;28;20172;-85
2024/01/03 12:15:29;;;;;;;10.40;2.87;;;11.60;99.90;;;;;;5094083;28;20667;-83
2024/01/03 12:18:05;;;;;;;8.20;2.53;;;11.50;99.90;;;;;;5091740;28;20179;-84
2024/01/03 12:20:31;;;;;;;4.77;1.77;;;11.30;99.90;;;;;;5079578;28;20229;-86
2024/01/03 12:23:18;;;;;;;7.57;1.70;;;11.10;99.90;;;;;;5079954;28;20164;-84
2024/01/03 12:25:44;;;;;;;4.40;1.53;;;10.80;99.90;;;;;;5082624;28;20235;-84
2024/01/03 12:28:17;;;;;;;4.87;1.70;;;10.60;99.90;;;;;;5082407;28;20168;-84
2024/01/03 12:30:43;;;;;;;5.70;1.90;;;10.60;99.90;;;;;;5084244;28;20596;-84
2024/01/03 12:33:15;;;;;;;8.10;2.27;;;10.50;99.90;;;;;;5082946;28;20651;-83
2024/01/03 12:35:41;;;;;;;7.23;2.40;;;10.60;99.90;;;;;;5084910;28;20171;-85
2024/01/03 12:38:07;;;;;;;7.83;2.20;;;10.70;99.90;;;;;;5092224;28;20256;-86
2024/01/03 12:40:33;;;;;;;7.83;2.90;;;10.80;99.90;;;;;;5095030;28;20203;-83